sensor_id;sensor_type;location;lat;lon;timestamp;temperature;humidity
43987;DHT22;29650;47.378;8.300;2023-03-01T00:01:25;1.30;86.60
43987;DHT22;29650;47.378;8.300;2023-03-01T00:03:51;1.20;88.10
43987;DHT22;29650;47.378;8.300;2023-03-01T00:06:20;1.20;88.00
43987;DHT22;29650;47.378;8.300;2023-03-01T00:08:47;1.20;87.60
43987;DHT22;29650;47.378;8.300;2023-03-01T00:11:14;1.20;87.30
43987;DHT22;29650;47.378;8.300;2023-03-01T00:13:42;1.30;87.60
43987;DHT22;29650;47.378;8.300;2023-03-01T00:16:10;1.30;87.60
43987;DHT22;29650;47.378;8.300;2023-03-01T00:18:38;1.30;88.40
43987;DHT22;29650;47.378;8.300;2023-03-01T00:21:05;1.20;89.00
43987;DHT22;29650;47.378;8.300;2023-03-01T00:23:33;1.20;88.00
43987;DHT22;29650;47.378;8.300;2023-03-01T00:26:00;1.30;88.20
43987;DHT22;29650;47.378;8.300;2023-03-01T00:28:27;1.30;87.90
43987;DHT22;29650;47.378;8.300;2023-03-01T00:30:53;1.30;88.10
43987;DHT22;29650;47.378;8.300;2023-03-01T00:33:20;1.30;88.10
43987;DHT22;29650;47.378;8.300;2023-03-01T00:35:47;1.20;88.90
43987;DHT22;29650;47.378;8.300;2023-03-01T00:38:13;1.30;88.00
43987;DHT22;29650;47.378;8.300;2023-03-01T00:40:41;1.20;88.80
43987;DHT22;29650;47.378;8.300;2023-03-01T00:43:08;1.20;88.40
43987;DHT22;29650;47.378;8.300;2023-03-01T00:45:35;1.20;88.50
43987;DHT22;29650;47.378;8.300;2023-03-01T00:48:02;1.30;87.80
43987;DHT22;29650;47.378;8.300;2023-03-01T00:50:29;1.30;89.00
43987;DHT22;29650;47.378;8.300;2023-03-01T00:52:55;1.30;88.50
43987;DHT22;29650;47.378;8.300;2023-03-01T00:55:22;1.30;88.30
43987;DHT22;29650;47.378;8.300;2023-03-01T00:57:51;1.20;88.00
43987;DHT22;29650;47.378;8.300;2023-03-01T01:00:18;1.30;88.00
43987;DHT22;29650;47.378;8.300;2023-03-01T01:02:45;1.30;87.80
43987;DHT22;29650;47.378;8.300;2023-03-01T01:05:12;1.40;87.30
43987;DHT22;29650;47.378;8.300;2023-03-01T01:07:39;1.40;87.10
43987;DHT22;29650;47.378;8.300;2023-03-01T01:10:06;1.50;87.10
43987;DHT22;29650;47.378;8.300;2023-03-01T01:12:33;1.50;86.60
43987;DHT22;29650;47.378;8.300;2023-03-01T01:15:01;1.40;87.60
43987;DHT22;29650;47.378;8.300;2023-03-01T01:17:28;1.30;87.40
43987;DHT22;29650;47.378;8.300;2023-03-01T01:19:54;1.40;88.00
43987;DHT22;29650;47.378;8.300;2023-03-01T01:22:21;1.50;87.70
43987;DHT22;29650;47.378;8.300;2023-03-01T01:24:48;1.40;87.80
43987;DHT22;29650;47.378;8.300;2023-03-01T01:27:14;1.40;86.90
43987;DHT22;29650;47.378;8.300;2023-03-01T01:29:41;1.30;87.20
43987;DHT22;29650;47.378;8.300;2023-03-01T01:32:09;1.20;87.90
43987;DHT22;29650;47.378;8.300;2023-03-01T01:34:36;1.30;88.50
43987;DHT22;29650;47.378;8.300;2023-03-01T01:37:03;1.30;87.10
43987;DHT22;29650;47.378;8.300;2023-03-01T01:39:33;1.30;87.80
43987;DHT22;29650;47.378;8.300;2023-03-01T01:41:59;1.30;88.70
43987;DHT22;29650;47.378;8.300;2023-03-01T01:44:27;1.30;88.10
43987;DHT22;29650;47.378;8.300;2023-03-01T01:46:55;1.40;87.70
43987;DHT22;29650;47.378;8.300;2023-03-01T01:49:26;1.30;88.50
43987;DHT22;29650;47.378;8.300;2023-03-01T01:51:56;1.40;88.20
43987;DHT22;29650;47.378;8.300;2023-03-01T01:54:24;1.30;89.10
43987;DHT22;29650;47.378;8.300;2023-03-01T01:56:52;1.30;88.80
43987;DHT22;29650;47.378;8.300;2023-03-01T01:59:21;1.30;87.80
43987;DHT22;29650;47.378;8.300;2023-03-01T02:01:50;1.40;88.00
43987;DHT22;29650;47.378;8.300;2023-03-01T02:04:17;1.40;87.80
43987;DHT22;29650;47.378;8.300;2023-03-01T02:06:47;1.50;87.80
43987;DHT22;29650;47.378;8.300;2023-03-01T02:09:15;1.50;87.40
43987;DHT22;29650;47.378;8.300;2023-03-01T02:11:43;1.50;87.70
43987;DHT22;29650;47.378;8.300;2023-03-01T02:14:09;1.40;89.10
43987;DHT22;29650;47.378;8.300;2023-03-01T02:16:36;1.40;89.20
43987;DHT22;29650;47.378;8.300;2023-03-01T02:19:03;1.30;89.70
43987;DHT22;29650;47.378;8.300;2023-03-01T02:21:34;1.40;89.20
43987;DHT22;29650;47.378;8.300;2023-03-01T02:24:06;1.30;88.10
43987;DHT22;29650;47.378;8.300;2023-03-01T02:26:37;1.30;88.90
43987;DHT22;29650;47.378;8.300;2023-03-01T02:29:08;1.40;89.20
43987;DHT22;29650;47.378;8.300;2023-03-01T02:31:35;1.40;88.60
43987;DHT22;29650;47.378;8.300;2023-03-01T02:34:07;1.40;88.30
43987;DHT22;29650;47.378;8.300;2023-03-01T02:36:35;1.40;88.90
43987;DHT22;29650;47.378;8.300;2023-03-01T02:39:03;1.50;88.60
43987;DHT22;29650;47.378;8.300;2023-03-01T02:41:31;1.50;88.20
43987;DHT22;29650;47.378;8.300;2023-03-01T02:43:59;1.60;87.40
43987;DHT22;29650;47.378;8.300;2023-03-01T02:46:27;1.60;87.80
43987;DHT22;29650;47.378;8.300;2023-03-01T02:48:55;1.60;88.40
43987;DHT22;29650;47.378;8.300;2023-03-01T02:51:28;1.50;88.30
43987;DHT22;29650;47.378;8.300;2023-03-01T02:54:01;1.50;89.20
43987;DHT22;29650;47.378;8.300;2023-03-01T02:56:32;1.50;88.60
43987;DHT22;29650;47.378;8.300;2023-03-01T02:59:00;1.60;88.10
43987;DHT22;29650;47.378;8.300;2023-03-01T03:04:32;1.60;88.50
43987;DHT22;29650;47.378;8.300;2023-03-01T03:06:59;1.50;87.90
43987;DHT22;29650;47.378;8.300;2023-03-01T03:09:25;1.50;88.50
43987;DHT22;29650;47.378;8.300;2023-03-01T03:11:52;1.60;89.00
43987;DHT22;29650;47.378;8.300;2023-03-01T03:14:19;1.60;88.00
43987;DHT22;29650;47.378;8.300;2023-03-01T03:16:46;1.60;87.90
43987;DHT22;29650;47.378;8.300;2023-03-01T03:19:13;1.60;88.20
43987;DHT22;29650;47.378;8.300;2023-03-01T03:21:41;1.60;87.80
43987;DHT22;29650;47.378;8.300;2023-03-01T03:24:08;1.60;87.70
43987;DHT22;29650;47.378;8.300;2023-03-01T03:26:35;1.60;88.20
43987;DHT22;29650;47.378;8.300;2023-03-01T03:29:02;1.60;89.40
43987;DHT22;29650;47.378;8.300;2023-03-01T03:31:29;1.60;88.60
43987;DHT22;29650;47.378;8.300;2023-03-01T03:33:55;1.60;88.40
43987;DHT22;29650;47.378;8.300;2023-03-01T03:36:24;1.60;88.40
43987;DHT22;29650;47.378;8.300;2023-03-01T03:38:52;1.60;88.50
43987;DHT22;29650;47.378;8.300;2023-03-01T03:41:19;1.60;88.40
43987;DHT22;29650;47.378;8.300;2023-03-01T03:43:45;1.70;88.20
43987;DHT22;29650;47.378;8.300;2023-03-01T03:46:12;1.70;88.30
43987;DHT22;29650;47.378;8.300;2023-03-01T03:48:39;1.60;90.10
43987;DHT22;29650;47.378;8.300;2023-03-01T03:51:06;1.50;89.90
43987;DHT22;29650;47.378;8.300;2023-03-01T03:53:35;1.70;88.90
43987;DHT22;29650;47.378;8.300;2023-03-01T03:56:04;1.50;89.30
43987;DHT22;29650;47.378;8.300;2023-03-01T03:58:31;1.50;89.50
43987;DHT22;29650;47.378;8.300;2023-03-01T04:00:57;1.50;89.20
43987;DHT22;29650;47.378;8.300;2023-03-01T04:03:26;1.50;89.70
43987;DHT22;29650;47.378;8.300;2023-03-01T04:05:53;1.50;90.00
43987;DHT22;29650;47.378;8.300;2023-03-01T04:08:20;1.50;90.00
43987;DHT22;29650;47.378;8.300;2023-03-01T04:10:48;1.50;90.20
43987;DHT22;29650;47.378;8.300;2023-03-01T04:13:17;1.60;89.80
43987;DHT22;29650;47.378;8.300;2023-03-01T04:15:45;1.60;89.70
43987;DHT22;29650;47.378;8.300;2023-03-01T04:18:13;1.60;89.60
43987;DHT22;29650;47.378;8.300;2023-03-01T04:20:40;1.50;90.50
43987;DHT22;29650;47.378;8.300;2023-03-01T04:23:08;1.60;90.00
43987;DHT22;29650;47.378;8.300;2023-03-01T04:25:39;1.60;90.20
43987;DHT22;29650;47.378;8.300;2023-03-01T04:28:06;1.60;90.40
43987;DHT22;29650;47.378;8.300;2023-03-01T04:30:34;1.60;90.20
43987;DHT22;29650;47.378;8.300;2023-03-01T04:33:02;1.70;90.30
43987;DHT22;29650;47.378;8.300;2023-03-01T04:35:29;1.60;90.00
43987;DHT22;29650;47.378;8.300;2023-03-01T04:37:56;1.60;90.00
43987;DHT22;29650;47.378;8.300;2023-03-01T04:40:22;1.60;90.30
43987;DHT22;29650;47.378;8.300;2023-03-01T04:42:49;1.60;90.10
43987;DHT22;29650;47.378;8.300;2023-03-01T04:45:16;1.60;89.80
43987;DHT22;29650;47.378;8.300;2023-03-01T04:47:45;1.60;90.40
43987;DHT22;29650;47.378;8.300;2023-03-01T04:50:12;1.60;90.10
43987;DHT22;29650;47.378;8.300;2023-03-01T04:52:39;1.70;90.00
43987;DHT22;29650;47.378;8.300;2023-03-01T04:55:06;1.60;90.40
43987;DHT22;29650;47.378;8.300;2023-03-01T04:57:33;1.50;90.60
43987;DHT22;29650;47.378;8.300;2023-03-01T05:00:00;1.50;90.70
43987;DHT22;29650;47.378;8.300;2023-03-01T05:02:47;1.60;90.40
43987;DHT22;29650;47.378;8.300;2023-03-01T05:05:19;1.50;90.70
43987;DHT22;29650;47.378;8.300;2023-03-01T05:07:46;1.50;90.90
43987;DHT22;29650;47.378;8.300;2023-03-01T05:10:13;1.50;90.80
43987;DHT22;29650;47.378;8.300;2023-03-01T05:12:39;1.50;90.70
43987;DHT22;29650;47.378;8.300;2023-03-01T05:15:06;1.60;90.60
43987;DHT22;29650;47.378;8.300;2023-03-01T05:17:33;1.60;90.40
43987;DHT22;29650;47.378;8.300;2023-03-01T05:20:01;1.60;90.60
43987;DHT22;29650;47.378;8.300;2023-03-01T05:22:33;1.60;90.50
43987;DHT22;29650;47.378;8.300;2023-03-01T05:24:59;1.60;90.70
43987;DHT22;29650;47.378;8.300;2023-03-01T05:27:26;1.70;91.20
43987;DHT22;29650;47.378;8.300;2023-03-01T05:29:54;1.60;90.50
43987;DHT22;29650;47.378;8.300;2023-03-01T05:32:21;1.60;91.00
43987;DHT22;29650;47.378;8.300;2023-03-01T05:34:48;1.60;90.80
43987;DHT22;29650;47.378;8.300;2023-03-01T05:37:16;1.60;91.10
43987;DHT22;29650;47.378;8.300;2023-03-01T05:39:43;1.70;90.70
43987;DHT22;29650;47.378;8.300;2023-03-01T05:42:10;1.80;90.50
43987;DHT22;29650;47.378;8.300;2023-03-01T05:44:37;1.90;90.50
43987;DHT22;29650;47.378;8.300;2023-03-01T05:47:04;1.80;90.50
43987;DHT22;29650;47.378;8.300;2023-03-01T05:49:31;2.40;90.60
43987;DHT22;29650;47.378;8.300;2023-03-01T05:51:58;1.60;90.50
43987;DHT22;29650;47.378;8.300;2023-03-01T05:54:26;1.70;90.70
43987;DHT22;29650;47.378;8.300;2023-03-01T05:56:53;1.60;91.00
43987;DHT22;29650;47.378;8.300;2023-03-01T05:59:20;1.70;90.90
43987;DHT22;29650;47.378;8.300;2023-03-01T06:01:46;1.70;91.10
43987;DHT22;29650;47.378;8.300;2023-03-01T06:04:13;1.80;91.00
43987;DHT22;29650;47.378;8.300;2023-03-01T06:06:40;1.70;91.20
43987;DHT22;29650;47.378;8.300;2023-03-01T06:09:06;1.60;91.30
43987;DHT22;29650;47.378;8.300;2023-03-01T06:11:36;1.60;91.60
43987;DHT22;29650;47.378;8.300;2023-03-01T06:14:03;1.70;91.50
43987;DHT22;29650;47.378;8.300;2023-03-01T06:16:29;1.60;91.50
43987;DHT22;29650;47.378;8.300;2023-03-01T06:18:56;1.70;91.30
43987;DHT22;29650;47.378;8.300;2023-03-01T06:21:23;1.80;91.60
43987;DHT22;29650;47.378;8.300;2023-03-01T06:23:49;1.70;91.80
43987;DHT22;29650;47.378;8.300;2023-03-01T06:26:17;1.80;91.80
43987;DHT22;29650;47.378;8.300;2023-03-01T06:28:45;1.80;91.50
43987;DHT22;29650;47.378;8.300;2023-03-01T06:31:11;1.60;92.10
43987;DHT22;29650;47.378;8.300;2023-03-01T06:33:38;1.60;92.20
43987;DHT22;29650;47.378;8.300;2023-03-01T06:36:05;1.60;92.20
43987;DHT22;29650;47.378;8.300;2023-03-01T06:38:32;1.60;92.30
43987;DHT22;29650;47.378;8.300;2023-03-01T06:40:59;1.70;92.10
43987;DHT22;29650;47.378;8.300;2023-03-01T06:43:26;1.70;92.00
43987;DHT22;29650;47.378;8.300;2023-03-01T06:45:54;1.70;91.80
43987;DHT22;29650;47.378;8.300;2023-03-01T06:48:21;1.80;91.50
43987;DHT22;29650;47.378;8.300;2023-03-01T06:50:47;1.80;91.70
43987;DHT22;29650;47.378;8.300;2023-03-01T06:53:14;1.70;91.60
43987;DHT22;29650;47.378;8.300;2023-03-01T06:55:41;1.70;92.20
43987;DHT22;29650;47.378;8.300;2023-03-01T06:58:08;1.80;92.40
43987;DHT22;29650;47.378;8.300;2023-03-01T07:00:35;1.80;92.00
43987;DHT22;29650;47.378;8.300;2023-03-01T07:03:03;1.80;92.00
43987;DHT22;29650;47.378;8.300;2023-03-01T07:05:30;1.80;92.20
43987;DHT22;29650;47.378;8.300;2023-03-01T07:07:56;1.80;92.30
43987;DHT22;29650;47.378;8.300;2023-03-01T07:10:23;1.80;92.20
43987;DHT22;29650;47.378;8.300;2023-03-01T07:12:50;1.80;92.10
43987;DHT22;29650;47.378;8.300;2023-03-01T07:15:17;1.70;92.40
43987;DHT22;29650;47.378;8.300;2023-03-01T07:17:43;1.80;92.80
43987;DHT22;29650;47.378;8.300;2023-03-01T07:20:14;1.70;92.60
43987;DHT22;29650;47.378;8.300;2023-03-01T07:22:41;1.80;92.60
43987;DHT22;29650;47.378;8.300;2023-03-01T07:25:08;1.70;92.80
43987;DHT22;29650;47.378;8.300;2023-03-01T07:27:35;1.70;92.40
43987;DHT22;29650;47.378;8.300;2023-03-01T07:30:02;1.70;92.60
43987;DHT22;29650;47.378;8.300;2023-03-01T07:32:29;1.60;93.00
43987;DHT22;29650;47.378;8.300;2023-03-01T07:34:56;1.70;93.20
43987;DHT22;29650;47.378;8.300;2023-03-01T07:37:24;1.70;93.10
43987;DHT22;29650;47.378;8.300;2023-03-01T07:39:51;1.70;92.60
43987;DHT22;29650;47.378;8.300;2023-03-01T07:42:17;1.70;92.60
43987;DHT22;29650;47.378;8.300;2023-03-01T07:44:44;1.70;92.90
43987;DHT22;29650;47.378;8.300;2023-03-01T07:47:11;1.70;92.80
43987;DHT22;29650;47.378;8.300;2023-03-01T07:49:37;1.80;93.10
43987;DHT22;29650;47.378;8.300;2023-03-01T07:52:04;1.80;92.80
43987;DHT22;29650;47.378;8.300;2023-03-01T07:54:32;1.90;93.10
43987;DHT22;29650;47.378;8.300;2023-03-01T07:56:59;1.80;92.90
43987;DHT22;29650;47.378;8.300;2023-03-01T07:59:26;1.80;92.90
43987;DHT22;29650;47.378;8.300;2023-03-01T08:01:54;1.70;92.80
43987;DHT22;29650;47.378;8.300;2023-03-01T08:04:21;1.70;93.40
43987;DHT22;29650;47.378;8.300;2023-03-01T08:06:48;1.70;93.40
43987;DHT22;29650;47.378;8.300;2023-03-01T08:09:15;0.80;92.70
43987;DHT22;29650;47.378;8.300;2023-03-01T08:11:43;1.70;93.60
43987;DHT22;29650;47.378;8.300;2023-03-01T08:14:09;1.80;93.30
43987;DHT22;29650;47.378;8.300;2023-03-01T08:16:37;1.90;93.00
43987;DHT22;29650;47.378;8.300;2023-03-01T08:19:04;1.90;93.40
43987;DHT22;29650;47.378;8.300;2023-03-01T08:21:31;1.80;93.10
43987;DHT22;29650;47.378;8.300;2023-03-01T08:24:00;1.90;93.00
43987;DHT22;29650;47.378;8.300;2023-03-01T08:26:26;1.80;93.20
43987;DHT22;29650;47.378;8.300;2023-03-01T08:28:54;1.80;93.20
43987;DHT22;29650;47.378;8.300;2023-03-01T08:31:22;1.80;93.40
43987;DHT22;29650;47.378;8.300;2023-03-01T08:33:49;1.90;93.30
43987;DHT22;29650;47.378;8.300;2023-03-01T08:36:20;1.90;93.00
43987;DHT22;29650;47.378;8.300;2023-03-01T08:38:47;1.90;93.40
43987;DHT22;29650;47.378;8.300;2023-03-01T08:41:14;2.00;93.00
43987;DHT22;29650;47.378;8.300;2023-03-01T08:43:41;2.00;92.70
43987;DHT22;29650;47.378;8.300;2023-03-01T08:46:09;2.00;92.60
43987;DHT22;29650;47.378;8.300;2023-03-01T08:48:36;2.00;92.70
43987;DHT22;29650;47.378;8.300;2023-03-01T08:51:09;2.00;93.10
43987;DHT22;29650;47.378;8.300;2023-03-01T08:53:36;2.00;93.30
43987;DHT22;29650;47.378;8.300;2023-03-01T08:56:03;2.00;93.20
43987;DHT22;29650;47.378;8.300;2023-03-01T08:58:29;2.00;93.20
43987;DHT22;29650;47.378;8.300;2023-03-01T09:00:57;2.10;92.90
43987;DHT22;29650;47.378;8.300;2023-03-01T09:03:25;2.00;93.40
43987;DHT22;29650;47.378;8.300;2023-03-01T09:05:52;2.00;93.20
43987;DHT22;29650;47.378;8.300;2023-03-01T09:08:19;2.10;93.10
43987;DHT22;29650;47.378;8.300;2023-03-01T09:10:46;2.20;92.80
43987;DHT22;29650;47.378;8.300;2023-03-01T09:13:13;2.00;92.60
43987;DHT22;29650;47.378;8.300;2023-03-01T09:15:39;1.90;93.10
43987;DHT22;29650;47.378;8.300;2023-03-01T09:18:06;2.00;93.40
43987;DHT22;29650;47.378;8.300;2023-03-01T09:20:34;1.80;94.00
43987;DHT22;29650;47.378;8.300;2023-03-01T09:23:01;1.90;94.80
43987;DHT22;29650;47.378;8.300;2023-03-01T09:25:28;1.80;96.30
43987;DHT22;29650;47.378;8.300;2023-03-01T09:27:54;1.80;97.10
43987;DHT22;29650;47.378;8.300;2023-03-01T09:30:21;1.80;97.70
43987;DHT22;29650;47.378;8.300;2023-03-01T09:32:48;1.80;98.00
43987;DHT22;29650;47.378;8.300;2023-03-01T09:35:14;1.80;97.50
43987;DHT22;29650;47.378;8.300;2023-03-01T09:37:42;1.90;96.50
43987;DHT22;29650;47.378;8.300;2023-03-01T09:40:11;2.00;95.90
43987;DHT22;29650;47.378;8.300;2023-03-01T09:42:45;2.10;95.80
43987;DHT22;29650;47.378;8.300;2023-03-01T09:45:15;2.00;95.30
43987;DHT22;29650;47.378;8.300;2023-03-01T09:47:45;2.10;95.00
43987;DHT22;29650;47.378;8.300;2023-03-01T09:50:14;2.00;95.10
43987;DHT22;29650;47.378;8.300;2023-03-01T09:52:45;2.00;94.60
43987;DHT22;29650;47.378;8.300;2023-03-01T09:55:13;2.00;94.50
43987;DHT22;29650;47.378;8.300;2023-03-01T09:57:42;2.00;94.60
43987;DHT22;29650;47.378;8.300;2023-03-01T10:00:21;2.00;94.90
43987;DHT22;29650;47.378;8.300;2023-03-01T10:02:49;2.00;94.80
43987;DHT22;29650;47.378;8.300;2023-03-01T10:05:22;2.00;94.80
43987;DHT22;29650;47.378;8.300;2023-03-01T10:07:54;2.10;94.40
43987;DHT22;29650;47.378;8.300;2023-03-01T10:10:26;2.10;94.80
43987;DHT22;29650;47.378;8.300;2023-03-01T10:12:53;2.10;94.50
43987;DHT22;29650;47.378;8.300;2023-03-01T10:15:22;2.10;94.20
43987;DHT22;29650;47.378;8.300;2023-03-01T10:17:51;2.00;94.50
43987;DHT22;29650;47.378;8.300;2023-03-01T10:20:20;2.10;94.20
43987;DHT22;29650;47.378;8.300;2023-03-01T10:22:47;2.10;93.80
43987;DHT22;29650;47.378;8.300;2023-03-01T10:25:21;2.10;94.10
43987;DHT22;29650;47.378;8.300;2023-03-01T10:27:51;2.20;94.00
43987;DHT22;29650;47.378;8.300;2023-03-01T10:30:19;2.20;94.00
43987;DHT22;29650;47.378;8.300;2023-03-01T10:32:46;2.20;94.00
43987;DHT22;29650;47.378;8.300;2023-03-01T10:35:18;2.20;94.50
43987;DHT22;29650;47.378;8.300;2023-03-01T10:37:58;2.20;93.70
43987;DHT22;29650;47.378;8.300;2023-03-01T10:40:26;2.20;93.40
43987;DHT22;29650;47.378;8.300;2023-03-01T10:42:53;2.30;93.30
43987;DHT22;29650;47.378;8.300;2023-03-01T10:45:33;2.30;93.60
43987;DHT22;29650;47.378;8.300;2023-03-01T10:48:04;2.30;93.30
43987;DHT22;29650;47.378;8.300;2023-03-01T10:50:31;2.30;93.10
43987;DHT22;29650;47.378;8.300;2023-03-01T10:52:58;2.20;93.20
43987;DHT22;29650;47.378;8.300;2023-03-01T10:55:29;2.20;93.20
43987;DHT22;29650;47.378;8.300;2023-03-01T10:58:08;2.30;93.20
43987;DHT22;29650;47.378;8.300;2023-03-01T11:00:45;2.40;93.20
43987;DHT22;29650;47.378;8.300;2023-03-01T11:03:13;2.30;93.30
43987;DHT22;29650;47.378;8.300;2023-03-01T11:05:53;2.10;93.20
43987;DHT22;29650;47.378;8.300;2023-03-01T11:08:30;2.10;93.00
43987;DHT22;29650;47.378;8.300;2023-03-01T11:11:18;2.10;93.20
43987;DHT22;29650;47.378;8.300;2023-03-01T11:13:48;2.30;93.30
43987;DHT22;29650;47.378;8.300;2023-03-01T11:16:16;2.30;93.00
43987;DHT22;29650;47.378;8.300;2023-03-01T11:18:55;2.30;93.00
43987;DHT22;29650;47.378;8.300;2023-03-01T11:21:22;2.30;92.70
43987;DHT22;29650;47.378;8.300;2023-03-01T11:23:49;2.30;92.60
43987;DHT22;29650;47.378;8.300;2023-03-01T11:26:19;2.40;93.30
43987;DHT22;29650;47.378;8.300;2023-03-01T11:28:47;2.30;92.50
43987;DHT22;29650;47.378;8.300;2023-03-01T11:31:14;2.20;92.80
43987;DHT22;29650;47.378;8.300;2023-03-01T11:33:43;2.30;92.80
43987;DHT22;29650;47.378;8.300;2023-03-01T11:36:13;2.40;92.90
43987;DHT22;29650;47.378;8.300;2023-03-01T11:38:42;2.50;92.70
43987;DHT22;29650;47.378;8.300;2023-03-01T11:41:11;2.40;92.40
43987;DHT22;29650;47.378;8.300;2023-03-01T11:43:44;2.40;92.40
43987;DHT22;29650;47.378;8.300;2023-03-01T11:46:22;2.50;92.40
43987;DHT22;29650;47.378;8.300;2023-03-01T11:48:56;2.50;92.40
43987;DHT22;29650;47.378;8.300;2023-03-01T11:51:32;2.40;92.10
43987;DHT22;29650;47.378;8.300;2023-03-01T11:54:06;2.40;92.30
43987;DHT22;29650;47.378;8.300;2023-03-01T11:56:38;2.40;92.20
43987;DHT22;29650;47.378;8.300;2023-03-01T12:01:59;2.60;92.00
43987;DHT22;29650;47.378;8.300;2023-03-01T12:04:54;2.50;92.10
43987;DHT22;29650;47.378;8.300;2023-03-01T12:07:25;2.60;92.00
43987;DHT22;29650;47.378;8.300;2023-03-01T12:10:01;2.50;91.90
43987;DHT22;29650;47.378;8.300;2023-03-01T12:12:34;2.60;92.00
43987;DHT22;29650;47.378;8.300;2023-03-01T12:17:54;2.70;92.10
43987;DHT22;29650;47.378;8.300;2023-03-01T12:20:27;2.70;91.50
43987;DHT22;29650;47.378;8.300;2023-03-01T12:22:59;2.50;92.00
43987;DHT22;29650;47.378;8.300;2023-03-01T12:25:30;2.50;92.10
43987;DHT22;29650;47.378;8.300;2023-03-01T12:30:45;2.40;92.70
43987;DHT22;29650;47.378;8.300;2023-03-01T12:33:19;2.50;93.00
43987;DHT22;29650;47.378;8.300;2023-03-01T12:38:41;2.40;92.60
43987;DHT22;29650;47.378;8.300;2023-03-01T12:41:12;2.40;92.70
43987;DHT22;29650;47.378;8.300;2023-03-01T12:43:44;2.50;92.60
43987;DHT22;29650;47.378;8.300;2023-03-01T12:46:15;2.50;92.40
43987;DHT22;29650;47.378;8.300;2023-03-01T12:48:49;2.90;92.00
43987;DHT22;29650;47.378;8.300;2023-03-01T12:51:19;2.60;92.20
43987;DHT22;29650;47.378;8.300;2023-03-01T12:53:50;2.60;92.00
43987;DHT22;29650;47.378;8.300;2023-03-01T12:56:17;2.50;91.80
43987;DHT22;29650;47.378;8.300;2023-03-01T12:58:48;2.90;93.60
43987;DHT22;29650;47.378;8.300;2023-03-01T13:01:19;2.70;92.60
43987;DHT22;29650;47.378;8.300;2023-03-01T13:03:58;2.50;91.70
43987;DHT22;29650;47.378;8.300;2023-03-01T13:06:29;2.70;91.60
43987;DHT22;29650;47.378;8.300;2023-03-01T13:09:04;2.70;91.70
43987;DHT22;29650;47.378;8.300;2023-03-01T13:11:33;2.70;91.60
43987;DHT22;29650;47.378;8.300;2023-03-01T13:16:45;2.80;91.80
43987;DHT22;29650;47.378;8.300;2023-03-01T13:19:16;2.70;91.40
43987;DHT22;29650;47.378;8.300;2023-03-01T13:21:43;2.80;91.20
43987;DHT22;29650;47.378;8.300;2023-03-01T13:24:23;2.70;91.10
43987;DHT22;29650;47.378;8.300;2023-03-01T13:29:43;2.70;91.80
43987;DHT22;29650;47.378;8.300;2023-03-01T13:32:18;2.80;91.40
43987;DHT22;29650;47.378;8.300;2023-03-01T13:34:47;3.30;96.20
43987;DHT22;29650;47.378;8.300;2023-03-01T13:39:59;2.80;91.10
43987;DHT22;29650;47.378;8.300;2023-03-01T13:42:31;2.80;90.90
43987;DHT22;29650;47.378;8.300;2023-03-01T13:44:58;2.70;91.10
43987;DHT22;29650;47.378;8.300;2023-03-01T13:47:25;2.80;90.90
43987;DHT22;29650;47.378;8.300;2023-03-01T13:49:55;2.80;91.30
43987;DHT22;29650;47.378;8.300;2023-03-01T13:52:32;2.90;90.80
43987;DHT22;29650;47.378;8.300;2023-03-01T13:55:00;2.90;90.40
43987;DHT22;29650;47.378;8.300;2023-03-01T13:57:30;2.80;90.70
43987;DHT22;29650;47.378;8.300;2023-03-01T13:59:58;2.60;90.70
43987;DHT22;29650;47.378;8.300;2023-03-01T14:02:25;2.80;90.50
43987;DHT22;29650;47.378;8.300;2023-03-01T14:05:02;2.60;89.90
43987;DHT22;29650;47.378;8.300;2023-03-01T14:07:29;2.40;91.00
43987;DHT22;29650;47.378;8.300;2023-03-01T14:09:56;2.50;91.00
43987;DHT22;29650;47.378;8.300;2023-03-01T14:12:30;2.60;90.80
43987;DHT22;29650;47.378;8.300;2023-03-01T14:15:01;2.70;91.10
43987;DHT22;29650;47.378;8.300;2023-03-01T14:25:25;2.50;90.90
43987;DHT22;29650;47.378;8.300;2023-03-01T14:28:11;2.50;90.60
43987;DHT22;29650;47.378;8.300;2023-03-01T14:30:42;2.50;90.40
43987;DHT22;29650;47.378;8.300;2023-03-01T14:33:22;2.50;90.60
43987;DHT22;29650;47.378;8.300;2023-03-01T14:35:58;2.60;90.40
43987;DHT22;29650;47.378;8.300;2023-03-01T14:38:33;2.60;90.50
43987;DHT22;29650;47.378;8.300;2023-03-01T14:41:05;2.60;90.70
43987;DHT22;29650;47.378;8.300;2023-03-01T14:43:33;2.60;90.20
43987;DHT22;29650;47.378;8.300;2023-03-01T14:46:00;2.70;90.40
43987;DHT22;29650;47.378;8.300;2023-03-01T14:48:28;2.70;90.40
43987;DHT22;29650;47.378;8.300;2023-03-01T14:50:56;2.60;90.00
43987;DHT22;29650;47.378;8.300;2023-03-01T14:53:25;2.50;90.40
43987;DHT22;29650;47.378;8.300;2023-03-01T14:55:54;2.50;90.90
43987;DHT22;29650;47.378;8.300;2023-03-01T14:58:24;2.50;90.30
43987;DHT22;29650;47.378;8.300;2023-03-01T15:00:53;2.60;90.20
43987;DHT22;29650;47.378;8.300;2023-03-01T15:03:26;2.50;90.20
43987;DHT22;29650;47.378;8.300;2023-03-01T15:05:54;2.60;90.20
43987;DHT22;29650;47.378;8.300;2023-03-01T15:08:24;2.50;90.30
43987;DHT22;29650;47.378;8.300;2023-03-01T15:11:03;2.60;90.00
43987;DHT22;29650;47.378;8.300;2023-03-01T15:13:33;2.50;89.50
43987;DHT22;29650;47.378;8.300;2023-03-01T15:16:06;2.50;89.10
43987;DHT22;29650;47.378;8.300;2023-03-01T15:18:34;2.40;90.20
43987;DHT22;29650;47.378;8.300;2023-03-01T15:21:09;2.40;90.10
43987;DHT22;29650;47.378;8.300;2023-03-01T15:23:40;2.60;89.10
43987;DHT22;29650;47.378;8.300;2023-03-01T15:26:22;2.60;88.40
43987;DHT22;29650;47.378;8.300;2023-03-01T15:28:52;2.50;88.40
43987;DHT22;29650;47.378;8.300;2023-03-01T15:31:25;2.50;88.90
43987;DHT22;29650;47.378;8.300;2023-03-01T15:33:52;2.50;88.50
43987;DHT22;29650;47.378;8.300;2023-03-01T15:36:40;2.60;88.10
43987;DHT22;29650;47.378;8.300;2023-03-01T15:39:32;2.50;88.10
43987;DHT22;29650;47.378;8.300;2023-03-01T15:42:04;2.50;88.00
43987;DHT22;29650;47.378;8.300;2023-03-01T15:44:34;2.50;88.10
43987;DHT22;29650;47.378;8.300;2023-03-01T15:47:05;2.60;88.00
43987;DHT22;29650;47.378;8.300;2023-03-01T15:49:38;2.60;88.10
43987;DHT22;29650;47.378;8.300;2023-03-01T15:52:13;2.40;88.10
43987;DHT22;29650;47.378;8.300;2023-03-01T15:54:40;2.50;87.90
43987;DHT22;29650;47.378;8.300;2023-03-01T15:57:12;2.50;87.50
43987;DHT22;29650;47.378;8.300;2023-03-01T15:59:41;2.50;87.80
43987;DHT22;29650;47.378;8.300;2023-03-01T16:02:10;2.50;87.30
43987;DHT22;29650;47.378;8.300;2023-03-01T16:04:38;2.40;87.00
43987;DHT22;29650;47.378;8.300;2023-03-01T16:07:05;2.50;87.20
43987;DHT22;29650;47.378;8.300;2023-03-01T16:09:33;2.50;87.50
43987;DHT22;29650;47.378;8.300;2023-03-01T16:11:59;2.50;87.50
43987;DHT22;29650;47.378;8.300;2023-03-01T16:14:27;2.50;87.10
43987;DHT22;29650;47.378;8.300;2023-03-01T16:16:55;2.60;87.30
43987;DHT22;29650;47.378;8.300;2023-03-01T16:19:22;2.70;86.70
43987;DHT22;29650;47.378;8.300;2023-03-01T16:21:49;2.50;86.70
43987;DHT22;29650;47.378;8.300;2023-03-01T16:24:16;2.60;86.50
43987;DHT22;29650;47.378;8.300;2023-03-01T16:26:43;2.50;87.40